Time;durP1;ratioP1;P1;durP2;ratioP2;P2;SDS_P1;SDS_P2;PMS_P1;PMS_P2;Temp;Humidity;BMP_temperature;BMP_pressure;BME280_temperature;BME280_humidity;BME280_pressure;Samples;Min_cycle;Max_cycle;Signal;HPM_P1;HPM_P2
2023/06/03 00:00:31;;;;;;;0.50;0.50;;;22.00;51.00;;;21.90;36.61;95137.22;5034941;28;20205;-48
2023/06/03 00:02:59;;;;;;;0.40;0.40;;;21.90;51.10;;;21.88;36.50;95144.69;5050561;28;20192;-50
2023/06/03 00:05:26;;;;;;;0.30;0.30;;;21.80;51.10;;;21.85;36.84;95143.31;5034914;28;20196;-49
2023/06/03 00:07:53;;;;;;;0.50;0.50;;;21.80;51.20;;;21.82;36.84;95145.69;5034734;28;20196;-51
2023/06/03 00:10:20;;;;;;;0.30;0.30;;;21.80;51.30;;;21.77;36.84;95138.47;5035018;28;20283;-46
2023/06/03 00:12:47;;;;;;;0.45;0.45;;;21.80;51.40;;;21.75;36.85;95141.41;5034677;28;20211;-46
2023/06/03 00:15:14;;;;;;;0.60;0.60;;;21.70;51.40;;;21.75;36.66;95143.25;5034647;28;20575;-46
2023/06/03 00:17:41;;;;;;;0.50;0.50;;;21.70;51.50;;;21.72;36.69;95141.91;5034529;28;20236;-46
2023/06/03 00:20:09;;;;;;;0.57;0.57;;;21.60;52.80;;;21.70;36.78;95143.22;5033681;28;20528;-46
2023/06/03 00:22:38;;;;;;;0.60;0.60;;;21.60;51.50;;;21.69;36.94;95139.75;5034567;28;20583;-46
2023/06/03 00:25:07;;;;;;;0.50;0.50;;;21.60;52.90;;;21.68;37.26;95138.13;5034831;28;20540;-46
2023/06/03 00:27:35;;;;;;;0.40;0.40;;;21.60;51.70;;;21.68;36.90;95139.97;5034442;28;20287;-48
2023/06/03 00:30:05;;;;;;;0.60;0.60;;;21.50;51.60;;;21.67;37.03;95139.19;5034291;28;20279;-46
2023/06/03 00:32:34;;;;;;;0.50;0.50;;;21.50;51.70;;;21.68;37.02;95139.97;5050109;28;20204;-46
2023/06/03 00:35:01;;;;;;;0.55;0.55;;;21.50;51.70;;;21.68;36.86;95143.47;5049979;28;20683;-46
2023/06/03 00:37:28;;;;;;;0.50;0.50;;;21.50;51.70;;;21.65;37.09;95145.84;5033519;28;20589;-46
2023/06/03 00:39:55;;;;;;;0.60;0.60;;;21.50;51.70;;;21.60;37.02;95146.63;5034352;28;20192;-46
2023/06/03 00:42:23;;;;;;;0.40;0.40;;;21.40;51.60;;;21.56;36.81;95151.66;5049919;28;20180;-46
2023/06/03 00:44:50;;;;;;;0.60;0.60;;;21.40;51.50;;;21.51;37.12;95148.13;5033487;28;20209;-46
2023/06/03 00:47:19;;;;;;;0.52;0.52;;;21.40;51.30;;;21.42;36.45;95153.94;5049704;28;20209;-46
2023/06/03 00:49:46;;;;;;;0.45;0.45;;;21.40;50.90;;;21.34;36.40;95156.25;5033606;28;20205;-46
2023/06/03 00:52:16;;;;;;;0.60;0.60;;;21.30;50.70;;;21.28;36.70;95147.41;5033252;28;20573;-48
2023/06/03 00:54:44;;;;;;;0.40;0.40;;;21.30;50.80;;;21.25;36.32;95156.72;5033113;28;20311;-46
2023/06/03 00:57:12;;;;;;;0.50;0.50;;;21.20;50.60;;;21.23;36.65;95148.16;5033343;28;20619;-46
2023/06/03 00:59:39;;;;;;;0.55;0.55;;;21.20;50.60;;;21.24;36.59;95147.09;5034054;28;20279;-46
2023/06/03 01:02:06;;;;;;;0.60;0.60;;;21.20;50.60;;;21.24;36.67;95156.97;5049799;28;20203;-47
2023/06/03 01:04:34;;;;;;;0.40;0.40;;;21.10;50.50;;;21.22;36.10;95151.09;5033933;28;20649;-46
2023/06/03 01:07:06;;;;;;;0.50;0.50;;;21.10;50.40;;;21.19;36.32;95157.72;5118044;27;20196;-46
2023/06/03 01:10:09;;;;;;;0.40;0.40;;;21.10;50.40;;;21.12;35.98;95162.47;5034359;28;20243;-46
2023/06/03 01:12:45;;;;;;;0.40;0.40;;;21.10;50.20;;;21.08;35.88;95164.84;5033865;28;20198;-46
2023/06/03 01:15:20;;;;;;;0.60;0.60;;;21.00;50.10;;;21.04;36.36;95157.56;5033772;28;20605;-46
2023/06/03 01:17:52;;;;;;;0.55;0.55;;;21.00;50.10;;;21.02;36.40;95165.84;5033811;28;20210;-49
2023/06/03 01:20:26;;;;;;;0.40;0.40;;;20.90;50.10;;;21.02;36.45;95157.84;5049326;28;20215;-46
2023/06/03 01:23:23;;;;;;;0.38;0.38;;;20.90;50.10;;;20.97;35.87;95159.63;5033204;28;20196;-45
2023/06/03 01:25:52;;;;;;;0.30;0.30;;;20.90;50.10;;;20.91;36.31;95164.94;5049336;28;20205;-45
2023/06/03 01:28:23;;;;;;;0.40;0.40;;;20.80;50.10;;;20.88;35.83;95161.94;5033488;28;20649;-46
2023/06/03 01:30:55;;;;;;;0.57;0.57;;;20.80;50.10;;;20.82;36.01;95168.28;5049140;28;20245;-46
2023/06/03 01:33:27;;;;;;;0.80;0.80;;;20.80;50.10;;;20.79;36.15;95158.94;5033030;28;20213;-46
2023/06/03 01:35:58;;;;;;;0.50;0.50;;;20.80;50.20;;;20.79;36.45;95151.72;5032520;28;20205;-46
2023/06/03 01:38:26;;;;;;;0.60;0.60;;;20.70;51.50;;;20.79;36.17;95156.28;5015997;28;20197;-50
2023/06/03 01:40:56;;;;;;;0.30;0.30;;;20.70;50.20;;;20.78;36.35;95162.66;5033042;28;20201;-50
2023/06/03 01:43:23;;;;;;;0.40;0.40;;;20.70;50.30;;;20.77;36.39;95161.81;5048961;28;20650;-49
2023/06/03 01:45:51;;;;;;;0.40;0.40;;;20.70;50.20;;;20.78;36.08;95155.44;5033358;28;20181;-49
2023/06/03 01:48:18;;;;;;;0.40;0.40;;;20.60;50.30;;;20.77;36.28;95156.50;5118286;27;20207;-47
2023/06/03 01:50:45;;;;;;;0.40;0.40;;;20.60;50.30;;;20.78;36.00;95166.09;5033256;28;20200;-50
2023/06/03 01:53:15;;;;;;;0.30;0.30;;;20.60;50.30;;;20.76;36.26;95164.75;5049249;28;20200;-49
2023/06/03 01:55:46;;;;;;;0.40;0.40;;;20.60;50.30;;;20.74;35.67;95161.56;5033440;28;20261;-46
2023/06/03 01:58:14;;;;;;;0.60;0.60;;;20.60;50.20;;;20.74;36.33;95161.56;5048604;28;20216;-46
2023/06/03 02:00:42;;;;;;;0.60;0.60;;;20.60;50.20;;;20.72;36.33;95161.00;5031397;28;20208;-45
2023/06/03 02:03:09;;;;;;;0.40;0.40;;;20.60;50.20;;;20.70;36.05;95168.38;5033059;28;20184;-45
2023/06/03 02:05:36;;;;;;;0.65;0.65;;;20.50;50.00;;;20.68;35.67;95165.97;5032269;28;20203;-45
2023/06/03 02:08:04;;;;;;;0.40;0.40;;;20.50;50.10;;;20.67;35.79;95163.56;5032827;28;20196;-46
2023/06/03 02:10:31;;;;;;;0.50;0.50;;;20.50;50.10;;;20.69;35.76;95166.78;5031546;28;20594;-45
2023/06/03 02:12:58;;;;;;;0.40;0.40;;;20.50;50.30;;;20.70;35.94;95163.06;5048827;28;20513;-46
2023/06/03 02:15:25;;;;;;;0.40;0.40;;;20.50;50.40;;;20.72;35.94;95172.44;5048445;28;20216;-45
2023/06/03 02:17:55;;;;;;;0.43;0.43;;;20.50;50.40;;;20.68;36.13;95162.50;5031721;28;20199;-47
2023/06/03 02:20:24;;;;;;;0.32;0.32;;;20.50;50.20;;;20.66;36.22;95167.28;5032265;28;20173;-45
2023/06/03 02:22:53;;;;;;;0.50;0.50;;;20.40;50.10;;;20.66;35.78;95161.97;5031780;28;20637;-45
2023/06/03 02:25:20;;;;;;;0.30;0.30;;;20.50;50.30;;;20.64;36.15;95162.19;5032943;28;20201;-45
2023/06/03 02:27:48;;;;;;;0.30;0.30;;;20.50;50.20;;;20.62;35.84;95164.31;5032537;28;20210;-50
2023/06/03 02:30:15;;;;;;;0.60;0.60;;;20.40;50.20;;;20.60;36.06;95169.06;5117440;27;20334;-45
2023/06/03 02:32:42;;;;;;;0.50;0.50;;;20.40;50.10;;;20.59;35.82;95170.94;5033454;28;20507;-45
2023/06/03 02:35:09;;;;;;;0.60;0.60;;;20.40;50.20;;;20.60;35.82;95177.91;5031524;28;20662;-45
2023/06/03 02:37:37;;;;;;;0.45;0.45;;;20.40;50.30;;;20.57;35.88;95169.59;5032620;28;20217;-45
2023/06/03 02:40:06;;;;;;;0.60;0.60;;;20.40;50.20;;;20.55;35.73;95171.69;5032735;28;20661;-45
2023/06/03 02:42:33;;;;;;;0.50;0.50;;;20.40;50.20;;;20.50;36.22;95174.31;5032687;28;20186;-45
2023/06/03 02:45:00;;;;;;;0.30;0.30;;;20.30;50.00;;;20.45;36.25;95183.81;5048003;28;20509;-47
2023/06/03 02:47:27;;;;;;;0.40;0.40;;;20.30;50.10;;;20.40;36.20;95178.44;5032762;28;20199;-45
2023/06/03 02:49:55;;;;;;;0.40;0.40;;;20.30;50.20;;;20.37;36.23;95180.78;5031411;28;20210;-48
2023/06/03 02:52:23;;;;;;;0.50;0.50;;;20.30;50.20;;;20.35;35.87;95181.03;5032248;28;20710;-45
2023/06/03 02:54:50;;;;;;;0.60;0.60;;;20.30;51.60;;;20.32;35.84;95184.19;5031262;28;20245;-46
2023/06/03 02:57:17;;;;;;;0.30;0.30;;;20.30;50.30;;;20.29;35.83;95185.47;5047624;28;20200;-45
2023/06/03 02:59:44;;;;;;;0.40;0.40;;;20.20;50.20;;;20.29;36.40;95184.69;5047878;28;20192;-46
2023/06/03 03:02:11;;;;;;;0.50;0.50;;;20.20;50.20;;;20.25;36.14;95181.72;5047782;28;20213;-45
2023/06/03 03:04:38;;;;;;;0.30;0.30;;;20.20;51.50;;;20.21;35.99;95188.56;5032487;28;20562;-45
2023/06/03 03:07:09;;;;;;;0.60;0.60;;;20.20;50.20;;;20.18;36.32;95186.41;5032094;28;20198;-46
2023/06/03 03:09:38;;;;;;;0.60;0.60;;;20.10;50.20;;;20.16;36.29;95185.84;5047847;28;20584;-47
2023/06/03 03:12:07;;;;;;;0.50;0.50;;;20.00;51.40;;;20.14;36.26;95188.75;5047617;28;20614;-45
2023/06/03 03:14:38;;;;;;;0.60;0.60;;;20.00;50.10;;;20.11;36.19;95193.75;5047667;28;20665;-47
2023/06/03 03:17:06;;;;;;;0.57;0.57;;;20.10;50.30;;;20.09;36.56;95186.03;5031075;28;20619;-45
2023/06/03 03:19:33;;;;;;;0.40;0.40;;;20.00;50.20;;;20.07;36.37;95193.44;5014636;28;20190;-45
2023/06/03 03:22:03;;;;;;;0.40;0.40;;;20.00;50.30;;;20.09;36.52;95195.84;5047628;28;20200;-45
2023/06/03 03:24:30;;;;;;;0.50;0.50;;;20.00;50.50;;;20.10;36.18;95206.28;5031281;28;20208;-46
2023/06/03 03:26:59;;;;;;;0.40;0.40;;;20.00;50.60;;;20.07;36.53;95198.78;5047532;28;20258;-45
2023/06/03 03:29:27;;;;;;;0.40;0.40;;;20.00;50.50;;;20.04;36.35;95203.78;5014618;28;20208;-47
2023/06/03 03:32:07;;;;;;;0.50;0.50;;;19.90;50.40;;;19.97;36.29;95202.09;5030796;28;20577;-47
2023/06/03 03:34:38;;;;;;;0.60;0.60;;;19.90;50.30;;;19.95;36.42;95198.06;5047458;28;20247;-46
2023/06/03 03:37:11;;;;;;;0.60;0.60;;;19.90;50.40;;;19.91;36.67;95203.06;5047327;28;20204;-50
2023/06/03 03:39:40;;;;;;;0.50;0.50;;;19.80;50.30;;;19.92;36.59;95201.19;5031462;28;20673;-45
2023/06/03 03:42:09;;;;;;;0.50;0.50;;;19.80;50.40;;;19.93;36.56;95200.16;5031895;28;20227;-45
2023/06/03 03:44:37;;;;;;;0.35;0.35;;;19.80;50.50;;;19.93;36.74;95200.97;5047315;28;20213;-45
2023/06/03 03:47:06;;;;;;;0.50;0.50;;;19.80;50.50;;;19.94;36.43;95196.44;5047286;28;20295;-47
2023/06/03 03:49:39;;;;;;;0.50;0.50;;;19.80;50.60;;;19.95;36.63;95198.06;5014855;28;20197;-45
2023/06/03 03:52:10;;;;;;;0.40;0.40;;;19.80;50.70;;;19.96;36.65;95191.69;5031312;28;20212;-44
2023/06/03 03:54:43;;;;;;;0.43;0.43;;;19.80;50.70;;;19.98;36.93;95200.22;5015063;28;20244;-45
2023/06/03 03:57:14;;;;;;;0.50;0.50;;;19.80;51.00;;;20.00;36.40;95208.78;5047420;28;20195;-45
2023/06/03 03:59:48;;;;;;;0.45;0.45;;;19.80;51.10;;;20.03;36.80;95216.28;5047001;28;20647;-45
2023/06/03 04:02:19;;;;;;;0.43;0.43;;;19.80;51.00;;;20.04;36.76;95209.91;5030812;28;20273;-45
2023/06/03 04:04:47;;;;;;;0.30;0.30;;;19.80;51.10;;;20.05;36.33;95216.84;5047055;28;20213;-44
2023/06/03 04:07:20;;;;;;;0.50;0.50;;;19.80;51.00;;;20.05;36.74;95213.38;5031642;28;20204;-45
2023/06/03 04:09:48;;;;;;;0.70;0.70;;;19.80;51.10;;;20.05;36.76;95208.84;5030375;28;20291;-45
2023/06/03 04:12:33;;;;;;;0.50;0.50;;;19.80;51.00;;;20.03;36.38;95205.66;5031327;28;20194;-45
2023/06/03 04:15:03;;;;;;;0.50;0.50;;;19.80;50.80;;;19.98;36.76;95209.03;5047314;28;20240;-46
2023/06/03 04:17:37;;;;;;;0.50;0.50;;;19.80;50.80;;;19.98;36.51;95211.69;5047317;28;20187;-45
2023/06/03 04:20:41;;;;;;;0.50;0.50;;;19.80;50.80;;;19.95;36.44;95208.72;5046899;28;20198;-45
2023/06/03 04:23:15;;;;;;;0.40;0.40;;;19.80;50.90;;;19.94;36.87;95217.75;5048269;28;20575;-44
2023/06/03 04:25:43;;;;;;;0.40;0.40;;;19.80;52.10;;;19.94;36.40;95220.41;5051362;28;20296;-45
2023/06/03 04:28:13;;;;;;;0.50;0.50;;;19.80;50.90;;;19.92;36.63;95220.66;5050034;28;20200;-45
2023/06/03 04:30:41;;;;;;;0.35;0.35;;;19.80;50.90;;;19.92;36.52;95218.00;5033346;28;20247;-44
2023/06/03 04:33:08;;;;;;;0.40;0.40;;;19.80;51.00;;;19.89;36.67;95226.47;5050090;28;20204;-45
2023/06/03 04:35:36;;;;;;;0.50;0.50;;;19.80;50.90;;;19.87;37.06;95233.88;5034591;28;20230;-45
2023/06/03 04:38:03;;;;;;;0.50;0.50;;;19.80;50.90;;;19.81;36.80;95230.31;5033291;28;20224;-45
2023/06/03 04:40:30;;;;;;;0.70;0.70;;;19.80;50.80;;;19.78;36.54;95235.31;5034333;28;20711;-44
2023/06/03 04:43:03;;;;;;;0.50;0.50;;;19.70;50.70;;;19.71;36.84;95232.78;5033412;28;20261;-44
2023/06/03 04:45:32;;;;;;;0.40;0.40;;;19.70;50.70;;;19.64;37.07;95234.81;5033332;28;20307;-44
2023/06/03 04:48:01;;;;;;;0.40;0.40;;;19.70;50.70;;;19.58;37.00;95235.75;5033186;28;20559;-46
2023/06/03 04:50:35;;;;;;;0.40;0.40;;;19.70;50.70;;;19.52;36.56;95238.34;5033672;28;20555;-44
2023/06/03 04:53:04;;;;;;;0.45;0.45;;;19.60;50.60;;;19.48;37.00;95239.06;5049884;28;20307;-44
2023/06/03 04:55:32;;;;;;;0.57;0.57;;;19.60;50.60;;;19.44;37.03;95222.78;5033092;28;20233;-46
2023/06/03 04:58:00;;;;;;;0.60;0.60;;;19.50;50.60;;;19.46;37.09;95233.19;5049933;28;20768;-45
2023/06/03 05:00:29;;;;;;;0.40;0.40;;;19.50;50.70;;;19.44;36.97;95235.28;5033655;28;20196;-46
2023/06/03 05:03:10;;;;;;;0.50;0.50;;;19.50;50.80;;;19.38;36.97;95231.72;5033506;28;20180;-46
2023/06/03 05:05:43;;;;;;;0.40;0.40;;;19.50;52.00;;;19.34;36.87;95239.34;5050199;28;20214;-46
2023/06/03 05:08:14;;;;;;;0.40;0.40;;;19.40;50.70;;;19.29;36.82;95230.50;5034221;28;20260;-44
2023/06/03 05:10:42;;;;;;;0.40;0.40;;;19.40;50.60;;;19.24;37.22;95244.50;5049707;28;20699;-48
2023/06/03 05:13:10;;;;;;;0.40;0.40;;;19.40;50.70;;;19.20;36.65;95241.50;5049569;28;20227;-47
2023/06/03 05:15:37;;;;;;;0.40;0.40;;;19.30;50.60;;;19.17;36.63;95235.88;5049596;28;20223;-51
2023/06/03 05:18:05;;;;;;;0.40;0.40;;;19.30;50.70;;;19.15;36.98;95238.78;5049299;28;20553;-44
2023/06/03 05:20:33;;;;;;;0.40;0.40;;;19.30;50.70;;;19.14;37.01;95244.31;5049619;28;20205;-49
2023/06/03 05:23:01;;;;;;;0.40;0.40;;;19.30;50.70;;;19.13;36.99;95242.72;5033880;28;20644;-45
2023/06/03 05:25:29;;;;;;;0.50;0.50;;;19.20;50.70;;;19.06;36.87;95236.72;5032979;28;20204;-43
2023/06/03 05:27:56;;;;;;;0.50;0.50;;;19.20;50.70;;;19.03;36.66;95240.66;5032898;28;20236;-43
2023/06/03 05:30:33;;;;;;;0.40;0.40;;;19.20;50.60;;;18.99;36.70;95253.63;5049120;28;20232;-43
2023/06/03 05:33:00;;;;;;;0.40;0.40;;;19.10;50.60;;;18.95;37.15;95255.13;5033727;28;20550;-49
2023/06/03 05:35:28;;;;;;;0.30;0.30;;;19.10;50.50;;;18.93;37.26;95251.91;5048119;28;20240;-44
2023/06/03 05:37:55;;;;;;;0.40;0.40;;;19.10;50.70;;;18.94;36.76;95250.06;5033750;28;20199;-43
2023/06/03 05:40:23;;;;;;;0.40;0.40;;;19.10;50.80;;;18.92;37.19;95252.13;5032535;28;20230;-44
2023/06/03 05:42:50;;;;;;;0.40;0.40;;;19.00;50.60;;;18.93;37.08;95248.44;5032836;28;20267;-45
2023/06/03 05:45:19;;;;;;;0.40;0.40;;;19.00;50.70;;;18.92;36.89;95258.28;5049178;28;20211;-45
2023/06/03 05:47:47;;;;;;;0.30;0.30;;;19.00;50.80;;;18.94;37.20;95253.50;5032365;28;20646;-46
2023/06/03 05:50:14;;;;;;;0.40;0.40;;;19.00;50.80;;;18.94;37.35;95258.03;5032459;28;20282;-43
2023/06/03 05:52:41;;;;;;;0.40;0.40;;;19.00;50.70;;;18.91;37.00;95259.31;5032340;28;20260;-46
2023/06/03 05:55:11;;;;;;;0.40;0.40;;;18.90;50.50;;;18.91;36.97;95261.13;5032912;28;20228;-44
2023/06/03 05:57:40;;;;;;;0.50;0.50;;;18.90;50.60;;;18.88;37.06;95257.91;5033262;28;20628;-46
2023/06/03 06:00:09;;;;;;;0.40;0.40;;;19.00;50.80;;;18.87;36.74;95263.44;5048825;28;20280;-45
2023/06/03 06:02:40;;;;;;;0.40;0.40;;;19.00;50.70;;;18.83;36.94;95267.63;5033329;28;20192;-43
2023/06/03 06:05:09;;;;;;;0.40;0.40;;;18.90;50.60;;;18.83;37.33;95284.34;5031986;28;20602;-45
2023/06/03 06:07:36;;;;;;;0.40;0.40;;;18.90;50.70;;;18.81;36.88;95277.66;5032160;28;20298;-45
2023/06/03 06:10:03;;;;;;;0.43;0.43;;;18.90;50.60;;;18.79;37.15;95277.91;5048558;28;20597;-44
2023/06/03 06:12:30;;;;;;;0.40;0.40;;;18.90;50.30;;;18.78;36.87;95283.47;5033200;28;20620;-45
2023/06/03 06:14:57;;;;;;;0.50;0.50;;;18.90;50.20;;;18.77;37.02;95289.81;5048478;28;20319;-44
2023/06/03 06:17:25;;;;;;;0.50;0.50;;;18.90;50.20;;;18.78;36.61;95280.81;5032569;28;20629;-45
2023/06/03 06:19:52;;;;;;;0.40;0.40;;;18.90;50.30;;;18.80;36.40;95282.19;5031714;28;20231;-45
2023/06/03 06:22:19;;;;;;;0.40;0.40;;;18.90;50.40;;;18.86;37.04;95286.56;5031862;28;20212;-44
2023/06/03 06:24:47;;;;;;;0.45;0.45;;;18.90;50.40;;;18.90;36.62;95275.47;5101201;28;20204;-46
2023/06/03 06:27:14;;;;;;;0.43;0.43;;;18.90;50.50;;;18.93;36.92;95286.47;5032775;28;20198;-47
2023/06/03 06:29:42;;;;;;;0.40;0.40;;;18.90;50.50;;;18.96;36.56;95280.66;5048347;28;20200;-46
2023/06/03 06:32:21;;;;;;;0.40;0.40;;;18.90;50.40;;;19.01;36.75;95282.63;5048259;28;20228;-47
2023/06/03 06:34:49;;;;;;;0.40;0.40;;;19.00;50.50;;;19.06;36.91;95282.72;5048102;28;20235;-43
2023/06/03 06:37:19;;;;;;;0.40;0.40;;;19.00;50.60;;;19.11;36.23;95282.03;5031786;28;20257;-45
2023/06/03 06:39:51;;;;;;;0.40;0.40;;;19.00;50.30;;;19.10;36.27;95283.84;5048481;28;20223;-43
2023/06/03 06:42:36;;;;;;;0.40;0.40;;;19.10;50.00;;;19.08;35.80;95280.66;5032885;28;20249;-44
2023/06/03 06:45:26;;;;;;;0.40;0.40;;;19.10;49.80;;;19.08;35.73;95285.97;5031773;28;20199;-45
2023/06/03 06:48:10;;;;;;;0.40;0.40;;;19.10;49.70;;;19.08;36.48;95285.97;5031645;28;20211;-44
2023/06/03 06:50:54;;;;;;;0.40;0.40;;;19.10;49.70;;;19.08;35.76;95277.16;5048179;28;20196;-45
2023/06/03 06:53:36;;;;;;;0.43;0.43;;;19.10;49.60;;;19.06;35.96;95274.75;5031646;28;20638;-44
2023/06/03 06:56:08;;;;;;;0.40;0.40;;;19.10;49.50;;;19.06;36.13;95273.94;5047920;28;20230;-44
2023/06/03 06:58:40;;;;;;;0.40;0.40;;;19.10;49.50;;;19.06;36.20;95279.25;5047965;28;20200;-43
2023/06/03 07:01:10;;;;;;;0.40;0.40;;;19.10;49.50;;;19.05;35.63;95281.09;5030289;28;20202;-45
2023/06/03 07:03:49;;;;;;;0.40;0.40;;;19.10;49.50;;;19.02;35.61;95268.28;5032226;28;20191;-44
2023/06/03 07:06:17;;;;;;;0.40;0.40;;;19.10;49.20;;;19.06;35.53;95273.94;5047760;28;20638;-44
2023/06/03 07:08:48;;;;;;;0.40;0.40;;;19.10;49.40;;;19.06;35.83;95274.75;5015899;28;20543;-44
2023/06/03 07:11:17;;;;;;;0.40;0.40;;;19.10;49.30;;;19.06;35.42;95277.41;5048022;28;20227;-46
2023/06/03 07:13:51;;;;;;;0.40;0.40;;;19.10;49.20;;;19.04;35.37;95277.66;5047880;28;20286;-46
2023/06/03 07:16:21;;;;;;;0.40;0.40;;;19.10;49.20;;;19.04;35.99;95275.00;5031179;28;20235;-46
2023/06/03 07:18:53;;;;;;;0.40;0.40;;;19.10;49.30;;;19.07;35.33;95271.03;4999147;28;20236;-44
2023/06/03 07:21:25;;;;;;;0.40;0.40;;;19.10;49.30;;;19.09;35.65;95271.63;5032537;28;20193;-46
2023/06/03 07:23:56;;;;;;;0.40;0.40;;;19.10;49.40;;;19.16;35.90;95279.44;5031430;28;20208;-46
2023/06/03 07:26:28;;;;;;;0.70;0.70;;;19.10;49.60;;;19.19;35.77;95274.47;5047628;28;20298;-43
2023/06/03 07:28:58;;;;;;;0.40;0.40;;;19.20;49.50;;;19.24;35.73;95271.09;5047751;28;20196;-45
2023/06/03 07:31:30;;;;;;;0.40;0.40;;;19.20;49.40;;;19.26;35.78;95274.34;5047806;28;20292;-45
2023/06/03 07:33:58;;;;;;;0.40;0.40;;;19.20;49.30;;;19.27;35.48;95261.84;5047552;28;20322;-44
2023/06/03 07:36:35;;;;;;;0.50;0.50;;;19.20;49.20;;;19.30;35.63;95267.50;5032103;28;20287;-45
2023/06/03 07:39:06;;;;;;;0.40;0.40;;;19.30;49.40;;;19.33;35.40;95266.19;5031816;28;20207;-46
2023/06/03 07:41:50;;;;;;;0.43;0.43;;;19.30;49.40;;;19.33;35.30;95264.38;5032460;28;20192;-46
2023/06/03 07:44:48;;;;;;;0.40;0.40;;;19.30;49.20;;;19.32;35.17;95267.25;5107183;28;20658;-45
2023/06/03 07:47:17;;;;;;;0.35;0.35;;;19.30;49.10;;;19.33;35.28;95271.53;5032039;28;20200;-49
2023/06/03 07:49:47;;;;;;;0.40;0.40;;;19.30;49.20;;;19.34;35.64;95270.47;5031544;28;20303;-45
2023/06/03 07:52:21;;;;;;;0.40;0.40;;;19.30;49.20;;;19.36;35.37;95265.75;5031901;28;20538;-44
2023/06/03 07:54:49;;;;;;;0.40;0.40;;;19.40;49.30;;;19.38;35.44;95276.13;5031879;28;20177;-44
2023/06/03 07:57:17;;;;;;;0.60;0.60;;;19.30;49.10;;;19.40;35.56;95271.38;5031800;28;20530;-44
2023/06/03 07:59:55;;;;;;;0.60;0.60;;;19.30;49.10;;;19.40;35.04;95282.03;5050683;28;20227;-44
2023/06/03 08:02:22;;;;;;;0.30;0.30;;;19.40;49.10;;;19.43;35.62;95270.91;5035289;28;20267;-45
2023/06/03 08:04:53;;;;;;;0.38;0.38;;;19.40;49.10;;;19.46;35.27;95273.88;5034401;28;20263;-47
2023/06/03 08:07:20;;;;;;;0.40;0.40;;;19.40;49.10;;;19.47;35.40;95262.22;5035016;28;20251;-44
2023/06/03 08:09:47;;;;;;;0.40;0.40;;;19.40;49.10;;;19.50;35.09;95271.56;5034798;28;20505;-45
2023/06/03 08:12:17;;;;;;;0.40;0.40;;;19.50;49.20;;;19.52;35.65;95262.28;5120262;27;20197;-44
2023/06/03 08:14:44;;;;;;;0.50;0.50;;;19.50;49.20;;;19.57;35.46;95258.91;5034812;28;20217;-45
2023/06/03 08:17:13;;;;;;;0.47;0.47;;;19.40;49.00;;;19.59;34.97;95270.13;5034985;28;20221;-45
2023/06/03 08:19:45;;;;;;;0.30;0.30;;;19.50;49.00;;;19.60;34.98;95266.41;5033649;28;20193;-47
2023/06/03 08:22:41;;;;;;;0.43;0.43;;;19.50;48.80;;;19.58;35.07;95265.03;5034284;28;20191;-44
2023/06/03 08:25:10;;;;;;;0.40;0.40;;;19.50;48.80;;;19.60;35.39;95274.38;5035049;28;20209;-46
2023/06/03 08:27:37;;;;;;;0.40;0.40;;;19.50;48.80;;;19.63;34.90;95273.13;5034792;28;20739;-44
2023/06/03 08:30:05;;;;;;;0.50;0.50;;;19.50;48.90;;;19.67;35.45;95268.94;5034322;28;20273;-46
2023/06/03 08:32:38;;;;;;;0.50;0.50;;;19.60;49.00;;;19.73;35.45;95273.28;5034196;28;20199;-48
2023/06/03 08:35:11;;;;;;;0.40;0.40;;;19.60;49.10;;;19.76;35.15;95277.31;5034584;28;20175;-46
2023/06/03 08:37:38;;;;;;;0.50;0.50;;;19.60;49.00;;;19.82;35.42;95273.69;5050408;28;20182;-44
2023/06/03 08:40:10;;;;;;;0.30;0.30;;;19.60;49.00;;;19.86;35.38;95268.72;5034246;28;20566;-44
2023/06/03 08:42:48;;;;;;;0.60;0.60;;;19.70;48.90;;;19.90;34.89;95275.19;5034623;28;20562;-45
2023/06/03 08:45:17;;;;;;;0.45;0.45;;;19.70;48.80;;;19.93;35.20;95258.72;5034371;28;20165;-43
2023/06/03 08:48:51;;;;;;;0.40;0.40;;;19.70;48.80;;;19.95;35.22;95259.31;5034628;28;20276;-45
2023/06/03 08:51:23;;;;;;;0.52;0.52;;;19.80;49.20;;;20.00;35.23;95273.47;5056117;28;20182;-45
2023/06/03 08:53:51;;;;;;;0.50;0.50;;;19.80;48.80;;;20.04;34.47;95265.81;5055911;28;20245;-47
2023/06/03 08:56:20;;;;;;;0.40;0.40;;;19.90;48.80;;;20.05;34.41;95277.28;5040814;28;20685;-45
2023/06/03 08:59:01;;;;;;;0.32;0.32;;;19.90;48.70;;;20.04;34.89;95259.69;5049903;28;20625;-43
2023/06/03 09:01:35;;;;;;;0.30;0.30;;;19.90;48.50;;;20.05;34.29;95269.31;5033975;28;20234;-47
2023/06/03 09:04:04;;;;;;;0.57;0.57;;;19.90;48.40;;;20.07;34.85;95270.66;5034477;28;20239;-45
2023/06/03 09:06:34;;;;;;;0.60;0.60;;;19.90;48.50;;;20.08;34.35;95263.47;5049643;28;20199;-45
2023/06/03 09:09:02;;;;;;;0.40;0.40;;;20.00;48.40;;;20.10;34.63;95264.88;5033885;28;20646;-44
2023/06/03 09:11:29;;;;;;;0.60;0.60;;;20.00;48.50;;;20.12;34.55;95257.44;5034272;28;20209;-49
2023/06/03 09:13:58;;;;;;;0.40;0.40;;;20.00;48.60;;;20.16;34.47;95255.09;5034310;28;20210;-47
2023/06/03 09:16:26;;;;;;;0.50;0.50;;;20.00;48.30;;;20.19;34.65;95256.44;5033837;28;20224;-45
2023/06/03 09:18:53;;;;;;;0.40;0.40;;;20.00;48.40;;;20.20;34.06;95256.22;5034504;28;20230;-54
2023/06/03 09:21:21;;;;;;;0.60;0.60;;;20.00;48.20;;;20.21;34.68;95268.47;5049605;28;20203;-46
2023/06/03 09:23:48;;;;;;;0.30;0.30;;;20.10;48.20;;;20.22;34.07;95263.97;5033760;28;20281;-47
2023/06/03 09:26:15;;;;;;;0.57;0.57;;;20.10;48.20;;;20.21;34.21;95257.03;5033792;28;20211;-44
2023/06/03 09:28:44;;;;;;;0.40;0.40;;;20.10;48.30;;;20.25;34.78;95258.97;5118815;27;20224;-44
2023/06/03 09:31:12;;;;;;;0.40;0.40;;;20.10;48.40;;;20.27;34.28;95259.50;5033418;28;20639;-43
2023/06/03 09:33:43;;;;;;;0.40;0.40;;;20.20;48.60;;;20.32;34.77;95253.44;5033690;28;20204;-44
2023/06/03 09:36:15;;;;;;;0.60;0.60;;;20.20;48.60;;;20.36;34.44;95259.09;5033902;28;20310;-46
2023/06/03 09:38:54;;;;;;;0.30;0.30;;;20.20;48.40;;;20.36;34.53;95256.44;5033757;28;20172;-46
2023/06/03 09:41:27;;;;;;;0.60;0.60;;;20.20;47.80;;;20.36;34.28;95253.75;5033401;28;20179;-43
2023/06/03 09:44:01;;;;;;;0.50;0.50;;;20.20;47.60;;;20.38;33.66;95255.13;5033891;28;20599;-44
2023/06/03 09:46:31;;;;;;;0.60;0.60;;;20.30;47.70;;;20.38;33.63;95257.78;5032875;28;20185;-46
2023/06/03 09:49:14;;;;;;;0.50;0.50;;;20.30;47.70;;;20.40;33.79;95255.69;5033349;28;20202;-45
2023/06/03 09:51:59;;;;;;;0.40;0.40;;;20.30;47.30;;;20.42;33.74;95256.25;5032419;28;20203;-45
2023/06/03 09:54:26;;;;;;;0.50;0.50;;;20.30;47.20;;;20.41;33.78;95251.97;5033855;28;20202;-48
2023/06/03 09:56:53;;;;;;;0.73;0.73;;;20.30;47.10;;;20.44;33.38;95261.34;5019743;28;20279;-45
2023/06/03 09:59:26;;;;;;;0.40;0.40;;;20.30;46.80;;;20.46;33.43;95249.38;5013436;28;20199;-44
2023/06/03 10:01:55;;;;;;;0.50;0.50;;;20.30;46.80;;;20.48;33.46;95252.63;5015357;28;20263;-50
2023/06/03 10:04:34;;;;;;;0.40;0.40;;;20.30;46.90;;;20.51;33.60;95256.66;5033190;28;20186;-44
2023/06/03 10:07:17;;;;;;;0.50;0.50;;;20.40;47.10;;;20.51;32.99;95253.16;5028378;28;20206;-47
2023/06/03 10:09:46;;;;;;;0.38;0.38;;;20.40;46.90;;;20.53;33.49;95254.56;5025686;28;20623;-44
2023/06/03 10:12:30;;;;;;;0.60;0.60;;;20.40;46.90;;;20.52;33.47;95252.94;5017004;28;20630;-46
2023/06/03 10:15:00;;;;;;;0.40;0.40;;;20.40;46.70;;;20.52;32.97;95258.25;5012400;28;20215;-46
2023/06/03 10:17:27;;;;;;;0.43;0.43;;;20.40;46.60;;;20.51;33.20;95248.66;5013551;28;20219;-45
2023/06/03 10:19:55;;;;;;;0.30;0.30;;;20.40;46.50;;;20.50;32.72;95257.69;5012758;28;20198;-45
2023/06/03 10:22:26;;;;;;;0.50;0.50;;;20.40;47.70;;;20.51;32.90;95255.81;5026862;28;20590;-49
2023/06/03 10:24:58;;;;;;;0.60;0.60;;;20.40;46.50;;;20.52;32.78;95260.94;5048332;28;20591;-45
2023/06/03 10:27:27;;;;;;;0.43;0.43;;;20.40;46.40;;;20.54;32.71;95260.69;5032683;28;20245;-46
2023/06/03 10:29:55;;;;;;;0.30;0.30;;;20.40;46.40;;;20.56;33.07;95255.91;5032613;28;20219;-52
2023/06/03 10:32:23;;;;;;;0.60;0.60;;;20.40;46.30;;;20.58;32.71;95256.44;5032924;28;20220;-50
2023/06/03 10:34:53;;;;;;;0.40;0.40;;;20.50;46.20;;;20.60;32.57;95249.03;5032154;28;20193;-48